Current Weather

Yangon Intl

Yangon Intl, Burma (VYYY)

Report from: Thursday, April 25, 2024 12:00 AM +0630
Current time: Thursday, April 25, 2024 12:34 AM +0630

Nearby weather – Weather history – Daily summaries
Weather forecast

Temperature29.0°C (84.2°F)
Heat index33.7°C (92.7°F)
Dew point24.0°C (75.2°F)
Winds 4 kts (2.1 m/s, 4.6 mph) Southwest (220°)
Visibility4.3 mi. (7 km)
Clouds Few clouds 2,000 ft. (610 m)
Scattered clouds 12,000 ft. (3,658 m)
Altimeter29.71 in.Hg (1006 mB)
Relative humidity75 %
Density altitude2,251 ft. (686 m)
Flight conditions Marginal Visual Meteorological Conditions
Raw dataVYYY 241730Z 22004KT 7000 FEW020 SCT120 29/24 Q1006
An error has occurred. This application may no longer respond until reloaded. Reload 🗙